sensor_id;sensor_type;location;lat;lon;timestamp;pressure;altitude;pressure_sealevel;temperature;humidity
78719;BME280;68046;53.334;9.538;2024-02-16T00:00:25;100928.88;;;10.35;100.00
78719;BME280;68046;53.334;9.538;2024-02-16T00:02:51;100919.16;;;10.30;100.00
78719;BME280;68046;53.334;9.538;2024-02-16T00:05:16;100921.66;;;10.26;100.00
78719;BME280;68046;53.334;9.538;2024-02-16T00:07:42;100911.16;;;10.26;100.00
78719;BME280;68046;53.334;9.538;2024-02-16T00:10:08;100910.53;;;10.35;100.00
78719;BME280;68046;53.334;9.538;2024-02-16T00:12:35;100916.59;;;10.32;100.00
78719;BME280;68046;53.334;9.538;2024-02-16T00:15:01;100913.13;;;10.33;100.00
78719;BME280;68046;53.334;9.538;2024-02-16T00:17:28;100903.63;;;10.38;100.00
78719;BME280;68046;53.334;9.538;2024-02-16T00:19:54;100907.09;;;10.37;100.00
78719;BME280;68046;53.334;9.538;2024-02-16T00:22:20;100893.97;;;10.37;100.00
78719;BME280;68046;53.334;9.538;2024-02-16T00:24:45;100892.06;;;10.30;100.00
78719;BME280;68046;53.334;9.538;2024-02-16T00:27:11;100886.81;;;10.30;100.00
78719;BME280;68046;53.334;9.538;2024-02-16T00:29:36;100888.50;;;10.28;100.00
78719;BME280;68046;53.334;9.538;2024-02-16T00:32:02;100884.75;;;10.20;100.00
78719;BME280;68046;53.334;9.538;2024-02-16T00:34:29;100885.78;;;10.25;100.00
78719;BME280;68046;53.334;9.538;2024-02-16T00:36:54;100889.25;;;10.24;100.00
78719;BME280;68046;53.334;9.538;2024-02-16T00:39:20;100893.56;;;10.22;100.00
78719;BME280;68046;53.334;9.538;2024-02-16T00:41:45;100893.63;;;10.25;100.00
78719;BME280;68046;53.334;9.538;2024-02-16T00:44:10;100892.75;;;10.24;100.00
78719;BME280;68046;53.334;9.538;2024-02-16T00:46:36;100896.16;;;10.20;100.00
78719;BME280;68046;53.334;9.538;2024-02-16T00:49:02;100894.22;;;10.13;100.00
78719;BME280;68046;53.334;9.538;2024-02-16T00:51:28;100890.06;;;10.21;100.00
78719;BME280;68046;53.334;9.538;2024-02-16T00:53:54;100892.59;;;10.18;100.00
78719;BME280;68046;53.334;9.538;2024-02-16T00:56:19;100891.03;;;10.25;100.00
78719;BME280;68046;53.334;9.538;2024-02-16T00:58:45;100892.75;;;10.23;100.00
78719;BME280;68046;53.334;9.538;2024-02-16T01:01:10;100886.56;;;10.21;100.00
78719;BME280;68046;53.334;9.538;2024-02-16T01:03:36;100896.81;;;10.12;100.00
78719;BME280;68046;53.334;9.538;2024-02-16T01:06:01;100895.88;;;10.10;100.00
78719;BME280;68046;53.334;9.538;2024-02-16T01:08:28;100893.41;;;10.16;100.00
78719;BME280;68046;53.334;9.538;2024-02-16T01:10:54;100889.84;;;10.14;100.00
78719;BME280;68046;53.334;9.538;2024-02-16T01:13:19;100883.81;;;10.16;100.00
78719;BME280;68046;53.334;9.538;2024-02-16T01:15:45;100874.25;;;10.18;100.00
78719;BME280;68046;53.334;9.538;2024-02-16T01:18:10;100870.91;;;10.24;100.00
78719;BME280;68046;53.334;9.538;2024-02-16T01:20:36;100871.41;;;10.09;100.00
78719;BME280;68046;53.334;9.538;2024-02-16T01:23:01;100860.94;;;10.11;100.00
78719;BME280;68046;53.334;9.538;2024-02-16T01:25:28;100868.97;;;10.17;100.00
78719;BME280;68046;53.334;9.538;2024-02-16T01:27:53;100870.69;;;10.15;100.00
78719;BME280;68046;53.334;9.538;2024-02-16T01:30:19;100869.66;;;10.08;100.00
78719;BME280;68046;53.334;9.538;2024-02-16T01:32:44;100863.41;;;10.04;100.00
78719;BME280;68046;53.334;9.538;2024-02-16T01:35:10;100863.56;;;10.11;100.00
78719;BME280;68046;53.334;9.538;2024-02-16T01:37:35;100866.03;;;10.04;100.00
78719;BME280;68046;53.334;9.538;2024-02-16T01:40:01;100870.53;;;10.10;100.00
78719;BME280;68046;53.334;9.538;2024-02-16T01:42:28;100863.25;;;9.98;100.00
78719;BME280;68046;53.334;9.538;2024-02-16T01:44:53;100854.34;;;9.92;100.00
78719;BME280;68046;53.334;9.538;2024-02-16T01:47:19;100852.13;;;10.07;100.00
78719;BME280;68046;53.334;9.538;2024-02-16T01:49:45;100840.84;;;10.10;100.00
78719;BME280;68046;53.334;9.538;2024-02-16T01:52:10;100841.72;;;10.10;100.00
78719;BME280;68046;53.334;9.538;2024-02-16T01:54:36;100837.28;;;10.07;100.00
78719;BME280;68046;53.334;9.538;2024-02-16T01:57:04;100839.06;;;10.08;100.00
78719;BME280;68046;53.334;9.538;2024-02-16T01:59:32;100831.22;;;10.08;100.00
78719;BME280;68046;53.334;9.538;2024-02-16T02:01:57;100840.69;;;10.03;100.00
78719;BME280;68046;53.334;9.538;2024-02-16T02:04:23;100839.00;;;10.05;100.00
78719;BME280;68046;53.334;9.538;2024-02-16T02:06:48;100844.81;;;9.95;100.00
78719;BME280;68046;53.334;9.538;2024-02-16T02:09:14;100837.69;;;9.90;100.00
78719;BME280;68046;53.334;9.538;2024-02-16T02:11:39;100838.91;;;10.02;100.00
78719;BME280;68046;53.334;9.538;2024-02-16T02:14:05;100840.50;;;9.96;100.00
78719;BME280;68046;53.334;9.538;2024-02-16T02:16:32;100827.63;;;10.05;100.00
78719;BME280;68046;53.334;9.538;2024-02-16T02:18:57;100828.59;;;10.10;100.00
78719;BME280;68046;53.334;9.538;2024-02-16T02:21:23;100832.09;;;10.11;100.00
78719;BME280;68046;53.334;9.538;2024-02-16T02:23:50;100828.50;;;10.05;100.00
78719;BME280;68046;53.334;9.538;2024-02-16T02:26:15;100829.34;;;10.04;100.00
78719;BME280;68046;53.334;9.538;2024-02-16T02:28:40;100827.56;;;10.02;100.00
78719;BME280;68046;53.334;9.538;2024-02-16T02:31:06;100830.34;;;10.10;100.00
78719;BME280;68046;53.334;9.538;2024-02-16T02:33:31;100822.47;;;10.10;100.00
78719;BME280;68046;53.334;9.538;2024-02-16T02:35:57;100825.09;;;10.08;100.00
78719;BME280;68046;53.334;9.538;2024-02-16T02:38:23;100819.13;;;10.15;100.00
78719;BME280;68046;53.334;9.538;2024-02-16T02:40:50;100811.19;;;10.12;100.00
78719;BME280;68046;53.334;9.538;2024-02-16T02:43:15;100805.16;;;10.15;100.00
78719;BME280;68046;53.334;9.538;2024-02-16T02:45:40;100802.53;;;10.15;100.00
78719;BME280;68046;53.334;9.538;2024-02-16T02:48:06;100805.91;;;10.11;100.00
78719;BME280;68046;53.334;9.538;2024-02-16T02:50:32;100791.16;;;10.14;100.00
78719;BME280;68046;53.334;9.538;2024-02-16T02:52:57;100789.34;;;10.12;100.00
78719;BME280;68046;53.334;9.538;2024-02-16T02:55:23;100788.41;;;10.10;100.00
78719;BME280;68046;53.334;9.538;2024-02-16T02:57:50;100778.00;;;10.13;100.00
78719;BME280;68046;53.334;9.538;2024-02-16T03:00:16;100774.50;;;10.14;100.00
78719;BME280;68046;53.334;9.538;2024-02-16T03:02:41;100769.25;;;10.12;100.00
78719;BME280;68046;53.334;9.538;2024-02-16T03:05:07;100753.59;;;10.15;100.00
78719;BME280;68046;53.334;9.538;2024-02-16T03:07:33;100752.81;;;10.19;100.00
78719;BME280;68046;53.334;9.538;2024-02-16T03:09:58;100771.00;;;10.12;100.00
78719;BME280;68046;53.334;9.538;2024-02-16T03:12:24;100754.47;;;10.16;100.00
78719;BME280;68046;53.334;9.538;2024-02-16T03:14:51;100759.63;;;10.11;100.00
78719;BME280;68046;53.334;9.538;2024-02-16T03:17:17;100758.84;;;10.17;100.00
78719;BME280;68046;53.334;9.538;2024-02-16T03:19:42;100755.44;;;10.19;100.00
78719;BME280;68046;53.334;9.538;2024-02-16T03:22:08;100757.16;;;10.19;100.00
78719;BME280;68046;53.334;9.538;2024-02-16T03:24:33;100747.50;;;10.16;100.00
78719;BME280;68046;53.334;9.538;2024-02-16T03:26:59;100749.16;;;10.11;100.00
78719;BME280;68046;53.334;9.538;2024-02-16T03:29:24;100752.59;;;10.10;100.00
78719;BME280;68046;53.334;9.538;2024-02-16T03:31:51;100762.09;;;10.05;100.00
78719;BME280;68046;53.334;9.538;2024-02-16T03:34:17;100765.53;;;10.02;100.00
78719;BME280;68046;53.334;9.538;2024-02-16T03:36:43;100755.94;;;10.04;100.00
78719;BME280;68046;53.334;9.538;2024-02-16T03:39:08;100763.00;;;10.07;100.00
78719;BME280;68046;53.334;9.538;2024-02-16T03:41:34;100749.22;;;10.14;100.00
78719;BME280;68046;53.334;9.538;2024-02-16T03:43:59;100753.47;;;10.11;100.00
78719;BME280;68046;53.334;9.538;2024-02-16T03:46:25;100742.25;;;10.16;100.00
78719;BME280;68046;53.334;9.538;2024-02-16T03:48:52;100742.38;;;10.21;100.00
78719;BME280;68046;53.334;9.538;2024-02-16T03:51:17;100751.66;;;10.06;100.00
78719;BME280;68046;53.334;9.538;2024-02-16T03:53:43;100744.81;;;10.13;100.00
78719;BME280;68046;53.334;9.538;2024-02-16T03:56:08;100741.44;;;10.17;100.00
78719;BME280;68046;53.334;9.538;2024-02-16T03:58:36;100742.22;;;10.15;100.00
78719;BME280;68046;53.334;9.538;2024-02-16T04:01:01;100743.06;;;10.14;100.00
78719;BME280;68046;53.334;9.538;2024-02-16T04:03:27;100742.31;;;10.18;100.00
78719;BME280;68046;53.334;9.538;2024-02-16T04:05:54;100737.69;;;10.07;100.00
78719;BME280;68046;53.334;9.538;2024-02-16T04:08:20;100741.91;;;10.01;100.00
78719;BME280;68046;53.334;9.538;2024-02-16T04:10:45;100746.63;;;10.16;100.00
78719;BME280;68046;53.334;9.538;2024-02-16T04:13:11;100740.44;;;10.12;100.00
78719;BME280;68046;53.334;9.538;2024-02-16T04:15:36;100731.78;;;10.16;100.00
78719;BME280;68046;53.334;9.538;2024-02-16T04:18:02;100735.19;;;10.14;100.00
78719;BME280;68046;53.334;9.538;2024-02-16T04:20:28;100733.38;;;10.10;100.00
78719;BME280;68046;53.334;9.538;2024-02-16T04:22:54;100732.38;;;10.04;100.00
78719;BME280;68046;53.334;9.538;2024-02-16T04:25:20;100728.78;;;9.99;100.00
78719;BME280;68046;53.334;9.538;2024-02-16T04:27:45;100727.25;;;10.09;100.00
78719;BME280;68046;53.334;9.538;2024-02-16T04:30:11;100730.47;;;9.97;100.00
78719;BME280;68046;53.334;9.538;2024-02-16T04:32:37;100729.00;;;10.08;100.00
78719;BME280;68046;53.334;9.538;2024-02-16T04:35:03;100726.09;;;9.98;100.00
78719;BME280;68046;53.334;9.538;2024-02-16T04:37:28;100729.00;;;10.10;100.00
78719;BME280;68046;53.334;9.538;2024-02-16T04:39:55;100721.22;;;10.13;100.00
78719;BME280;68046;53.334;9.538;2024-02-16T04:42:20;100725.56;;;10.13;100.00
78719;BME280;68046;53.334;9.538;2024-02-16T04:44:46;100725.50;;;10.10;100.00
78719;BME280;68046;53.334;9.538;2024-02-16T04:47:11;100730.72;;;10.08;100.00
78719;BME280;68046;53.334;9.538;2024-02-16T04:49:37;100722.16;;;10.15;100.00
78719;BME280;68046;53.334;9.538;2024-02-16T04:52:03;100723.69;;;10.07;100.00
78719;BME280;68046;53.334;9.538;2024-02-16T04:54:29;100726.09;;;9.96;100.00
78719;BME280;68046;53.334;9.538;2024-02-16T04:56:56;100722.66;;;10.00;100.00
78719;BME280;68046;53.334;9.538;2024-02-16T04:59:21;100731.41;;;9.99;100.00
78719;BME280;68046;53.334;9.538;2024-02-16T05:01:47;100725.28;;;10.00;100.00
78719;BME280;68046;53.334;9.538;2024-02-16T05:04:12;100724.41;;;10.00;100.00
78719;BME280;68046;53.334;9.538;2024-02-16T05:06:38;100720.94;;;10.01;100.00
78719;BME280;68046;53.334;9.538;2024-02-16T05:09:04;100717.41;;;9.99;100.00
78719;BME280;68046;53.334;9.538;2024-02-16T05:11:31;100714.75;;;9.97;100.00
78719;BME280;68046;53.334;9.538;2024-02-16T05:13:58;100720.06;;;10.00;100.00
78719;BME280;68046;53.334;9.538;2024-02-16T05:16:24;100709.50;;;9.97;100.00
78719;BME280;68046;53.334;9.538;2024-02-16T05:18:49;100707.59;;;9.90;100.00
78719;BME280;68046;53.334;9.538;2024-02-16T05:21:15;100711.25;;;9.98;100.00
78719;BME280;68046;53.334;9.538;2024-02-16T05:23:41;100705.94;;;9.94;100.00
78719;BME280;68046;53.334;9.538;2024-02-16T05:26:07;100704.03;;;9.88;100.00
78719;BME280;68046;53.334;9.538;2024-02-16T05:28:32;100704.78;;;9.82;100.00
78719;BME280;68046;53.334;9.538;2024-02-16T05:31:06;100709.13;;;9.82;100.00
78719;BME280;68046;53.334;9.538;2024-02-16T05:33:37;100715.31;;;9.84;100.00
78719;BME280;68046;53.334;9.538;2024-02-16T05:36:04;100714.22;;;9.76;100.00
78719;BME280;68046;53.334;9.538;2024-02-16T05:38:29;100713.34;;;9.75;100.00
78719;BME280;68046;53.334;9.538;2024-02-16T05:40:55;100717.72;;;9.75;100.00
78719;BME280;68046;53.334;9.538;2024-02-16T05:43:20;100716.00;;;9.77;100.00
78719;BME280;68046;53.334;9.538;2024-02-16T05:45:46;100705.44;;;9.74;100.00
78719;BME280;68046;53.334;9.538;2024-02-16T05:48:12;100703.03;;;9.81;100.00
78719;BME280;68046;53.334;9.538;2024-02-16T05:50:38;100708.06;;;9.74;100.00
78719;BME280;68046;53.334;9.538;2024-02-16T05:53:03;100707.91;;;9.68;100.00
78719;BME280;68046;53.334;9.538;2024-02-16T05:55:29;100706.97;;;9.66;100.00
78719;BME280;68046;53.334;9.538;2024-02-16T05:57:54;100705.28;;;9.68;100.00
78719;BME280;68046;53.334;9.538;2024-02-16T06:00:20;100708.91;;;9.73;100.00
78719;BME280;68046;53.334;9.538;2024-02-16T06:02:46;100700.94;;;9.68;100.00
78719;BME280;68046;53.334;9.538;2024-02-16T06:05:13;100697.28;;;9.61;100.00
78719;BME280;68046;53.334;9.538;2024-02-16T06:07:39;100687.81;;;9.67;100.00
78719;BME280;68046;53.334;9.538;2024-02-16T06:10:05;100694.75;;;9.65;100.00
78719;BME280;68046;53.334;9.538;2024-02-16T06:12:31;100698.16;;;9.60;100.00
78719;BME280;68046;53.334;9.538;2024-02-16T06:14:57;100693.72;;;9.59;100.00
78719;BME280;68046;53.334;9.538;2024-02-16T06:17:22;100700.63;;;9.56;100.00
78719;BME280;68046;53.334;9.538;2024-02-16T06:19:48;100697.91;;;9.51;100.00
78719;BME280;68046;53.334;9.538;2024-02-16T06:22:15;100710.88;;;9.47;100.00
78719;BME280;68046;53.334;9.538;2024-02-16T06:24:40;100698.00;;;9.54;100.00
78719;BME280;68046;53.334;9.538;2024-02-16T06:27:06;100701.44;;;9.53;100.00
78719;BME280;68046;53.334;9.538;2024-02-16T06:29:31;100704.69;;;9.43;100.00
78719;BME280;68046;53.334;9.538;2024-02-16T06:31:57;100703.22;;;9.54;100.00
78719;BME280;68046;53.334;9.538;2024-02-16T06:34:22;100708.41;;;9.51;100.00
78719;BME280;68046;53.334;9.538;2024-02-16T06:36:48;100701.59;;;9.59;100.00
78719;BME280;68046;53.334;9.538;2024-02-16T06:39:15;100708.53;;;9.57;100.00
78719;BME280;68046;53.334;9.538;2024-02-16T06:41:41;100715.31;;;9.49;100.00
78719;BME280;68046;53.334;9.538;2024-02-16T06:44:07;100707.50;;;9.51;100.00
78719;BME280;68046;53.334;9.538;2024-02-16T06:46:32;100715.31;;;9.49;100.00
78719;BME280;68046;53.334;9.538;2024-02-16T06:48:58;100711.84;;;9.50;100.00
78719;BME280;68046;53.334;9.538;2024-02-16T06:51:23;100717.94;;;9.49;100.00
78719;BME280;68046;53.334;9.538;2024-02-16T06:53:49;100715.22;;;9.46;100.00
78719;BME280;68046;53.334;9.538;2024-02-16T06:56:15;100721.25;;;9.42;100.00
78719;BME280;68046;53.334;9.538;2024-02-16T06:58:41;100716.84;;;9.41;100.00
78719;BME280;68046;53.334;9.538;2024-02-16T07:01:07;100711.75;;;9.47;100.00
78719;BME280;68046;53.334;9.538;2024-02-16T07:03:33;100711.53;;;9.38;100.00
78719;BME280;68046;53.334;9.538;2024-02-16T07:05:58;100720.47;;;9.46;100.00
78719;BME280;68046;53.334;9.538;2024-02-16T07:08:24;100725.63;;;9.43;100.00
78719;BME280;68046;53.334;9.538;2024-02-16T07:10:49;100729.38;;;9.53;100.00
78719;BME280;68046;53.334;9.538;2024-02-16T07:13:16;100724.09;;;9.51;100.00
78719;BME280;68046;53.334;9.538;2024-02-16T07:15:41;100725.06;;;9.55;100.00
78719;BME280;68046;53.334;9.538;2024-02-16T07:18:07;100722.16;;;9.44;100.00
78719;BME280;68046;53.334;9.538;2024-02-16T07:20:32;100726.41;;;9.39;100.00
78719;BME280;68046;53.334;9.538;2024-02-16T07:22:58;100727.31;;;9.41;100.00
78719;BME280;68046;53.334;9.538;2024-02-16T07:25:23;100729.09;;;9.42;100.00
78719;BME280;68046;53.334;9.538;2024-02-16T07:27:49;100732.06;;;9.56;100.00
78719;BME280;68046;53.334;9.538;2024-02-16T07:30:16;100736.50;;;9.58;100.00
78719;BME280;68046;53.334;9.538;2024-02-16T07:32:41;100736.50;;;9.58;100.00
78719;BME280;68046;53.334;9.538;2024-02-16T07:35:07;100729.72;;;9.67;100.00
78719;BME280;68046;53.334;9.538;2024-02-16T07:37:33;100730.66;;;9.69;100.00
78719;BME280;68046;53.334;9.538;2024-02-16T07:39:58;100723.03;;;9.78;100.00
78719;BME280;68046;53.334;9.538;2024-02-16T07:42:24;100731.84;;;9.83;100.00
78719;BME280;68046;53.334;9.538;2024-02-16T07:44:49;100731.91;;;9.84;100.00
78719;BME280;68046;53.334;9.538;2024-02-16T07:47:16;100735.47;;;9.88;100.00
78719;BME280;68046;53.334;9.538;2024-02-16T07:49:41;100732.72;;;9.82;100.00
78719;BME280;68046;53.334;9.538;2024-02-16T07:52:07;100732.94;;;9.91;100.00
78719;BME280;68046;53.334;9.538;2024-02-16T07:54:32;100730.09;;;9.82;100.00
78719;BME280;68046;53.334;9.538;2024-02-16T07:56:58;100726.53;;;9.80;100.00
78719;BME280;68046;53.334;9.538;2024-02-16T07:59:23;100727.50;;;9.83;100.00
78719;BME280;68046;53.334;9.538;2024-02-16T08:01:49;100723.91;;;9.78;100.00
78719;BME280;68046;53.334;9.538;2024-02-16T08:04:16;100719.63;;;9.82;100.00
78719;BME280;68046;53.334;9.538;2024-02-16T08:06:41;100706.66;;;9.88;100.00
78719;BME280;68046;53.334;9.538;2024-02-16T08:09:07;100718.97;;;9.91;100.00
78719;BME280;68046;53.334;9.538;2024-02-16T08:11:32;100730.31;;;9.91;100.00
78719;BME280;68046;53.334;9.538;2024-02-16T08:13:57;100724.13;;;9.88;100.00
78719;BME280;68046;53.334;9.538;2024-02-16T08:16:23;100721.66;;;9.95;100.00
78719;BME280;68046;53.334;9.538;2024-02-16T08:18:48;100729.47;;;9.92;100.00
78719;BME280;68046;53.334;9.538;2024-02-16T08:21:15;100727.56;;;9.87;100.00
78719;BME280;68046;53.334;9.538;2024-02-16T08:23:41;100735.63;;;9.94;100.00
78719;BME280;68046;53.334;9.538;2024-02-16T08:26:06;100721.59;;;9.92;100.00
78719;BME280;68046;53.334;9.538;2024-02-16T08:28:32;100721.88;;;10.04;100.00
78719;BME280;68046;53.334;9.538;2024-02-16T08:30:57;100723.88;;;10.15;100.00
78719;BME280;68046;53.334;9.538;2024-02-16T08:33:23;100725.66;;;10.16;100.00
78719;BME280;68046;53.334;9.538;2024-02-16T08:35:48;100723.81;;;10.12;100.00
78719;BME280;68046;53.334;9.538;2024-02-16T08:38:15;100722.22;;;10.18;100.00
78719;BME280;68046;53.334;9.538;2024-02-16T08:40:40;100719.88;;;10.29;100.00
78719;BME280;68046;53.334;9.538;2024-02-16T08:43:06;100724.41;;;10.38;100.00
78719;BME280;68046;53.334;9.538;2024-02-16T08:45:32;100728.91;;;10.43;100.00
78719;BME280;68046;53.334;9.538;2024-02-16T08:47:57;100719.41;;;10.48;100.00
78719;BME280;68046;53.334;9.538;2024-02-16T08:50:23;100725.59;;;10.50;100.00
78719;BME280;68046;53.334;9.538;2024-02-16T08:52:48;100715.28;;;10.60;100.00
78719;BME280;68046;53.334;9.538;2024-02-16T08:55:15;100711.91;;;10.65;100.00
78719;BME280;68046;53.334;9.538;2024-02-16T08:57:41;100713.75;;;10.71;100.00
78719;BME280;68046;53.334;9.538;2024-02-16T09:00:07;100716.38;;;10.71;100.00
78719;BME280;68046;53.334;9.538;2024-02-16T09:02:33;100711.22;;;10.74;100.00
78719;BME280;68046;53.334;9.538;2024-02-16T09:04:58;100707.72;;;10.75;100.00
78719;BME280;68046;53.334;9.538;2024-02-16T09:07:24;100700.00;;;10.83;100.00
78719;BME280;68046;53.334;9.538;2024-02-16T09:09:49;100698.41;;;10.89;100.00
78719;BME280;68046;53.334;9.538;2024-02-16T09:12:16;100701.09;;;10.92;100.00
78719;BME280;68046;53.334;9.538;2024-02-16T09:14:42;100710.78;;;10.98;100.00
78719;BME280;68046;53.334;9.538;2024-02-16T09:17:07;100711.75;;;11.02;100.00
78719;BME280;68046;53.334;9.538;2024-02-16T09:19:33;100709.97;;;11.01;100.00
78719;BME280;68046;53.334;9.538;2024-02-16T09:21:59;100713.56;;;11.06;100.00
78719;BME280;68046;53.334;9.538;2024-02-16T09:24:25;100721.56;;;11.12;100.00
78719;BME280;68046;53.334;9.538;2024-02-16T09:26:50;100716.31;;;11.10;100.00
78719;BME280;68046;53.334;9.538;2024-02-16T09:29:17;100720.75;;;11.16;100.00
78719;BME280;68046;53.334;9.538;2024-02-16T09:31:43;100720.06;;;11.25;100.00
78719;BME280;68046;53.334;9.538;2024-02-16T09:34:08;100718.38;;;11.28;100.00
78719;BME280;68046;53.334;9.538;2024-02-16T09:36:34;100723.75;;;11.36;100.00
78719;BME280;68046;53.334;9.538;2024-02-16T09:38:59;100712.47;;;11.41;100.00
78719;BME280;68046;53.334;9.538;2024-02-16T09:41:25;100720.44;;;11.46;100.00
78719;BME280;68046;53.334;9.538;2024-02-16T09:43:50;100712.53;;;11.44;100.00
78719;BME280;68046;53.334;9.538;2024-02-16T09:46:18;100715.38;;;11.55;100.00
78719;BME280;68046;53.334;9.538;2024-02-16T09:48:45;100722.44;;;11.61;100.00
78719;BME280;68046;53.334;9.538;2024-02-16T09:51:13;100724.25;;;11.63;100.00
78719;BME280;68046;53.334;9.538;2024-02-16T09:53:38;100726.91;;;11.65;100.00
78719;BME280;68046;53.334;9.538;2024-02-16T09:56:05;100737.41;;;11.65;100.00
78719;BME280;68046;53.334;9.538;2024-02-16T09:58:31;100733.97;;;11.69;100.00
78719;BME280;68046;53.334;9.538;2024-02-16T10:00:56;100727.06;;;11.74;100.00
78719;BME280;68046;53.334;9.538;2024-02-16T10:03:25;100735.13;;;11.85;100.00
78719;BME280;68046;53.334;9.538;2024-02-16T10:05:50;100730.13;;;12.00;100.00
78719;BME280;68046;53.334;9.538;2024-02-16T10:08:16;100736.28;;;12.01;100.00
78719;BME280;68046;53.334;9.538;2024-02-16T10:10:41;100740.75;;;12.06;100.00
78719;BME280;68046;53.334;9.538;2024-02-16T10:13:07;100733.69;;;12.04;100.00
78719;BME280;68046;53.334;9.538;2024-02-16T10:15:32;100736.47;;;12.13;100.00
78719;BME280;68046;53.334;9.538;2024-02-16T10:17:58;100745.28;;;12.17;100.00
78719;BME280;68046;53.334;9.538;2024-02-16T10:20:25;100733.94;;;12.19;100.00
78719;BME280;68046;53.334;9.538;2024-02-16T10:23:02;100741.97;;;12.28;100.00
78719;BME280;68046;53.334;9.538;2024-02-16T10:25:28;100735.09;;;12.40;100.00
78719;BME280;68046;53.334;9.538;2024-02-16T10:27:53;100739.53;;;12.45;100.00
78719;BME280;68046;53.334;9.538;2024-02-16T10:30:20;100739.63;;;12.50;100.00
78719;BME280;68046;53.334;9.538;2024-02-16T10:32:46;100746.72;;;12.55;100.00
78719;BME280;68046;53.334;9.538;2024-02-16T10:35:13;100751.09;;;12.56;100.00
78719;BME280;68046;53.334;9.538;2024-02-16T10:37:41;100745.03;;;12.62;100.00
78719;BME280;68046;53.334;9.538;2024-02-16T10:40:09;100755.53;;;12.59;100.00
78719;BME280;68046;53.334;9.538;2024-02-16T10:42:36;100755.56;;;12.62;100.00
78719;BME280;68046;53.334;9.538;2024-02-16T10:45:02;100754.66;;;12.60;100.00
78719;BME280;68046;53.334;9.538;2024-02-16T10:47:28;100747.72;;;12.65;100.00
78719;BME280;68046;53.334;9.538;2024-02-16T10:49:54;100751.25;;;12.67;100.00
78719;BME280;68046;53.334;9.538;2024-02-16T10:52:20;100754.91;;;12.77;100.00
78719;BME280;68046;53.334;9.538;2024-02-16T10:54:47;100748.81;;;12.82;100.00
78719;BME280;68046;53.334;9.538;2024-02-16T10:57:13;100750.56;;;12.84;100.00
78719;BME280;68046;53.334;9.538;2024-02-16T10:59:41;100750.56;;;12.82;100.00
78719;BME280;68046;53.334;9.538;2024-02-16T11:02:07;100751.47;;;12.82;100.00
78719;BME280;68046;53.334;9.538;2024-02-16T11:04:36;100740.09;;;12.85;100.00
78719;BME280;68046;53.334;9.538;2024-02-16T11:07:01;100745.38;;;12.88;100.00
78719;BME280;68046;53.334;9.538;2024-02-16T11:09:27;100740.13;;;12.88;100.00
78719;BME280;68046;53.334;9.538;2024-02-16T11:11:58;100739.31;;;12.94;100.00
78719;BME280;68046;53.334;9.538;2024-02-16T11:14:24;100733.16;;;12.95;100.00
78719;BME280;68046;53.334;9.538;2024-02-16T11:16:53;100742.91;;;13.00;100.00
78719;BME280;68046;53.334;9.538;2024-02-16T11:19:19;100736.72;;;12.97;100.00
78719;BME280;68046;53.334;9.538;2024-02-16T11:21:57;100743.78;;;13.02;100.00
78719;BME280;68046;53.334;9.538;2024-02-16T11:24:29;100753.44;;;13.02;100.00
78719;BME280;68046;53.334;9.538;2024-02-16T11:26:56;100759.66;;;13.07;100.00
78719;BME280;68046;53.334;9.538;2024-02-16T11:29:22;100750.94;;;13.13;100.00
78719;BME280;68046;53.334;9.538;2024-02-16T11:31:48;100754.53;;;13.21;100.00
78719;BME280;68046;53.334;9.538;2024-02-16T11:34:21;100760.78;;;13.27;100.00
78719;BME280;68046;53.334;9.538;2024-02-16T11:36:47;100748.47;;;13.26;100.00
78719;BME280;68046;53.334;9.538;2024-02-16T11:39:12;100753.75;;;13.26;100.00
78719;BME280;68046;53.334;9.538;2024-02-16T11:41:38;100757.28;;;13.29;100.00
78719;BME280;68046;53.334;9.538;2024-02-16T11:44:05;100747.63;;;13.29;100.00
78719;BME280;68046;53.334;9.538;2024-02-16T11:46:30;100757.28;;;13.29;100.00
78719;BME280;68046;53.334;9.538;2024-02-16T11:49:04;100752.03;;;13.32;100.00
78719;BME280;68046;53.334;9.538;2024-02-16T11:51:30;100743.25;;;13.31;100.00
78719;BME280;68046;53.334;9.538;2024-02-16T11:53:55;100745.00;;;13.27;100.00
78719;BME280;68046;53.334;9.538;2024-02-16T11:56:22;100745.88;;;13.30;100.00
78719;BME280;68046;53.334;9.538;2024-02-16T11:58:48;100746.78;;;13.32;100.00
78719;BME280;68046;53.334;9.538;2024-02-16T12:01:14;100744.13;;;13.32;100.00
78719;BME280;68046;53.334;9.538;2024-02-16T12:03:41;100750.31;;;13.34;100.00
78719;BME280;68046;53.334;9.538;2024-02-16T12:06:06;100751.97;;;13.25;100.00
78719;BME280;68046;53.334;9.538;2024-02-16T12:08:32;100750.19;;;13.24;100.00
78719;BME280;68046;53.334;9.538;2024-02-16T12:10:58;100752.00;;;13.27;100.00
78719;BME280;68046;53.334;9.538;2024-02-16T12:13:24;100739.72;;;13.29;100.00
78719;BME280;68046;53.334;9.538;2024-02-16T12:15:51;100750.22;;;13.26;100.00
78719;BME280;68046;53.334;9.538;2024-02-16T12:18:22;100747.56;;;13.24;100.00
78719;BME280;68046;53.334;9.538;2024-02-16T12:20:58;100754.56;;;13.24;100.00
78719;BME280;68046;53.334;9.538;2024-02-16T12:23:24;100758.94;;;13.23;100.00
78719;BME280;68046;53.334;9.538;2024-02-16T12:25:49;100767.81;;;13.27;100.00
78719;BME280;68046;53.334;9.538;2024-02-16T12:28:15;100765.19;;;13.27;100.00
78719;BME280;68046;53.334;9.538;2024-02-16T12:30:40;100756.44;;;13.31;100.00
78719;BME280;68046;53.334;9.538;2024-02-16T12:33:06;100765.25;;;13.33;100.00
78719;BME280;68046;53.334;9.538;2024-02-16T12:35:33;100771.38;;;13.31;100.00